createdAt,value
2022-08-08T00:00:54.069Z,11.38
2022-08-08T00:01:19.197Z,12.94
2022-08-08T00:02:31.387Z,22.50
2022-08-08T00:03:37.780Z,27.56
2022-08-08T00:04:55.550Z,26.75
2022-08-08T00:06:03.639Z,40.69
2022-08-08T00:07:28.951Z,45.63
2022-08-08T00:08:38.520Z,51.56
2022-08-08T00:09:57.200Z,65.62
2022-08-08T00:11:27.928Z,45.93
2022-08-08T00:12:39.074Z,38.63
2022-08-08T00:14:15.841Z,48.06
2022-08-08T00:15:17.715Z,37.81
2022-08-08T00:16:53.916Z,23.19
2022-08-08T00:18:04.647Z,21.44
2022-08-08T00:19:15.061Z,19.62
2022-08-08T00:20:23.777Z,16.50
2022-08-08T00:21:39.819Z,12.75
2022-08-08T00:22:51.454Z,11.88
2022-08-08T00:24:04.380Z,13.94
2022-08-08T00:25:11.445Z,11.06
2022-08-08T00:26:26.325Z,11.12
2022-08-08T00:27:34.878Z,12.13
2022-08-08T00:28:37.381Z,11.94
2022-08-08T00:29:56.717Z,10.44
2022-08-08T00:32:21.039Z,11.69
2022-08-08T00:32:33.958Z,12.19
2022-08-08T00:34:17.420Z,10.38
2022-08-08T00:34:58.721Z,4.94
2022-08-08T00:36:05.076Z,9.38
2022-08-08T00:37:46.985Z,11.06
2022-08-08T00:38:51.817Z,11.25
2022-08-08T00:41:10.393Z,10.44
2022-08-08T00:41:16.375Z,10.13
2022-08-08T00:42:41.772Z,10.75
2022-08-08T00:43:58.808Z,9.63
2022-08-08T00:45:20.915Z,8.38
2022-08-08T00:46:55.939Z,11.44
2022-08-08T00:48:02.130Z,8.44
2022-08-08T00:49:27.180Z,6.94
2022-08-08T00:50:48.195Z,7.81
2022-08-08T00:51:57.270Z,10.69
2022-08-08T00:53:15.577Z,10.94
2022-08-08T00:54:29.171Z,10.38
2022-08-08T00:56:01.581Z,9.31
2022-08-08T00:57:35.932Z,9.50
2022-08-08T00:59:11.285Z,9.75
2022-08-08T01:00:28.729Z,10.06
2022-08-08T01:02:01.339Z,9.75
2022-08-08T01:04:01.425Z,10.19
2022-08-08T01:05:07.800Z,9.19
2022-08-08T01:06:33.082Z,10.19
2022-08-08T01:07:54.879Z,10.75
2022-08-08T01:09:35.940Z,10.50
2022-08-08T01:10:34.943Z,10.69
2022-08-08T01:11:55.097Z,10.56
2022-08-08T01:13:43.619Z,9.25
2022-08-08T01:15:03.049Z,10.94
2022-08-08T01:16:28.652Z,12.00
2022-08-08T01:17:55.723Z,8.44
2022-08-08T01:19:13.896Z,8.81
2022-08-08T01:20:45.946Z,9.44
2022-08-08T01:22:13.558Z,10.75
2022-08-08T01:24:03.055Z,8.81
2022-08-08T01:24:55.086Z,10.88
2022-08-08T01:26:11.682Z,11.06
2022-08-08T01:27:21.350Z,10.38
2022-08-08T01:28:47.341Z,8.56
2022-08-08T01:30:14.107Z,9.50
2022-08-08T01:32:16.184Z,10.63
2022-08-08T01:33:24.287Z,10.31
2022-08-08T01:34:39.853Z,9.44
2022-08-08T01:35:46.885Z,8.88
2022-08-08T01:37:06.036Z,10.19
2022-08-08T01:38:31.398Z,9.38
2022-08-08T01:39:41.952Z,10.38
2022-08-08T01:41:03.797Z,11.06
2022-08-08T01:42:43.920Z,7.44
2022-08-08T01:44:07.735Z,9.88
2022-08-08T01:45:46.084Z,10.38
2022-08-08T01:46:54.781Z,9.00
2022-08-08T01:48:31.916Z,10.94
2022-08-08T01:49:57.152Z,9.00
2022-08-08T01:51:31.581Z,9.69
2022-08-08T01:52:58.996Z,9.00
2022-08-08T01:55:15.819Z,11.31
2022-08-08T01:56:27.005Z,11.94
2022-08-08T01:57:17.265Z,9.75
2022-08-08T01:58:38.297Z,10.81
2022-08-08T02:00:02.013Z,10.13
2022-08-08T02:00:52.505Z,9.94
2022-08-08T02:02:33.961Z,11.50
2022-08-08T02:03:55.518Z,9.44
2022-08-08T02:05:08.108Z,10.00
2022-08-08T02:06:43.533Z,10.88
2022-08-08T02:08:24.102Z,10.31
2022-08-08T02:10:04.376Z,5.44
2022-08-08T02:11:23.521Z,7.75
2022-08-08T02:12:27.805Z,7.81
2022-08-08T02:13:53.761Z,10.00
2022-08-08T02:15:12.270Z,7.75
2022-08-08T02:16:31.472Z,8.56
2022-08-08T02:18:00.846Z,9.00
2022-08-08T02:20:07.284Z,8.19
2022-08-08T02:21:01.509Z,8.94
2022-08-08T02:21:55.381Z,9.19
2022-08-08T02:23:18.381Z,11.56
2022-08-08T02:26:05.056Z,11.94
2022-08-08T02:27:15.023Z,10.06
2022-08-08T02:28:26.168Z,12.19
2022-08-08T02:29:52.545Z,10.31
2022-08-08T02:31:04.943Z,11.75
2022-08-08T02:32:22.378Z,12.37
2022-08-08T02:34:08.006Z,10.75
2022-08-08T02:35:08.596Z,9.31
2022-08-08T02:36:20.391Z,12.06
2022-08-08T02:37:52.377Z,9.81
2022-08-08T02:39:42.432Z,11.25
2022-08-08T02:40:36.409Z,9.63
2022-08-08T02:42:07.935Z,11.25
2022-08-08T02:44:44.922Z,13.06
2022-08-08T02:44:59.817Z,10.56
2022-08-08T02:46:24.937Z,9.13
2022-08-08T02:48:00.266Z,10.88
2022-08-08T02:49:48.063Z,10.13
2022-08-08T02:50:56.064Z,8.63
2022-08-08T02:52:34.994Z,10.50
2022-08-08T02:53:54.093Z,11.69
2022-08-08T02:55:05.324Z,9.06
2022-08-08T02:56:39.461Z,10.94
2022-08-08T02:57:54.973Z,10.56
2022-08-08T02:59:37.048Z,7.81
2022-08-08T03:00:59.123Z,7.56
2022-08-08T03:02:30.386Z,8.56
2022-08-08T03:03:46.643Z,8.19
2022-08-08T03:05:03.900Z,7.19
2022-08-08T03:06:09.036Z,6.81
2022-08-08T03:07:41.185Z,7.31
2022-08-08T03:09:14.247Z,9.00
2022-08-08T03:10:53.629Z,10.38
2022-08-08T03:12:13.869Z,13.69
2022-08-08T03:15:59.701Z,13.62
2022-08-08T03:16:00.168Z,12.19
2022-08-08T03:16:34.357Z,13.81
2022-08-08T03:18:05.176Z,11.94
2022-08-08T03:19:04.389Z,11.12
2022-08-08T03:20:10.260Z,9.19
2022-08-08T03:21:58.450Z,8.81
2022-08-08T03:22:38.814Z,8.44
2022-08-08T03:23:56.639Z,12.00
2022-08-08T03:24:33.745Z,12.37
2022-08-08T03:25:41.291Z,13.94
2022-08-08T03:26:50.832Z,12.50
2022-08-08T03:28:03.728Z,9.56
2022-08-08T03:29:16.984Z,9.56
2022-08-08T03:30:20.012Z,10.13
2022-08-08T03:31:27.251Z,12.37
2022-08-08T03:32:41.425Z,14.44
2022-08-08T03:33:56.153Z,10.50
2022-08-08T03:34:48.248Z,14.69
2022-08-08T03:35:58.422Z,14.44
2022-08-08T03:37:10.779Z,12.31
2022-08-08T03:38:56.912Z,12.25
2022-08-08T03:39:19.771Z,11.56
2022-08-08T03:40:29.920Z,11.56
2022-08-08T03:42:26.495Z,9.69
2022-08-08T03:42:47.697Z,9.44
2022-08-08T03:44:01.233Z,10.31
2022-08-08T03:46:07.442Z,11.00
2022-08-08T03:46:25.625Z,10.75
2022-08-08T03:47:39.639Z,14.44
2022-08-08T03:49:26.529Z,13.31
2022-08-08T03:49:59.855Z,11.00
2022-08-08T03:50:51.787Z,13.25
2022-08-08T03:51:57.185Z,13.06
2022-08-08T03:53:23.969Z,13.13
2022-08-08T03:54:41.499Z,12.31
2022-08-08T03:55:56.629Z,10.13
2022-08-08T03:56:40.291Z,10.50
2022-08-08T03:58:32.954Z,9.06
2022-08-08T03:58:59.390Z,9.75
2022-08-08T04:00:12.109Z,10.56
2022-08-08T04:01:23.206Z,10.81
2022-08-08T04:02:36.564Z,7.62
2022-08-08T04:03:59.240Z,8.31
2022-08-08T04:04:47.679Z,11.44
2022-08-08T04:05:57.463Z,9.75
2022-08-08T04:07:02.415Z,9.38
2022-08-08T04:08:33.860Z,10.75
2022-08-08T04:10:00.523Z,9.31
2022-08-08T04:10:25.270Z,8.63
2022-08-08T04:11:33.527Z,7.00
2022-08-08T04:12:39.385Z,7.56
2022-08-08T04:14:04.137Z,7.94
2022-08-08T04:14:58.704Z,7.75
2022-08-08T04:16:05.604Z,8.44
2022-08-08T04:17:22.641Z,6.94
2022-08-08T04:18:16.486Z,8.50
2022-08-08T04:19:24.166Z,9.31
2022-08-08T04:20:28.313Z,7.37
2022-08-08T04:21:41.162Z,4.87
2022-08-08T04:22:40.090Z,8.31
2022-08-08T04:24:05.487Z,8.31
2022-08-08T04:24:52.367Z,8.44
2022-08-08T04:26:05.272Z,8.44
2022-08-08T04:27:19.762Z,8.25
2022-08-08T04:28:36.931Z,2.75
2022-08-08T04:29:36.620Z,7.50
2022-08-08T04:30:36.446Z,8.06
2022-08-08T04:31:58.552Z,11.06
2022-08-08T04:33:12.430Z,10.19
2022-08-08T04:34:49.427Z,9.88
2022-08-08T04:35:50.884Z,9.63
2022-08-08T04:37:55.567Z,9.63
2022-08-08T04:40:03.139Z,10.38
2022-08-08T04:40:14.984Z,8.88
2022-08-08T04:44:34.026Z,10.44
2022-08-08T04:45:44.879Z,11.56
2022-08-08T04:46:47.005Z,10.06
2022-08-08T04:47:57.000Z,9.19
2022-08-08T04:49:01.181Z,8.94
2022-08-08T04:50:06.284Z,8.44
2022-08-08T04:51:11.913Z,12.56
2022-08-08T04:54:36.022Z,16.00
2022-08-08T04:54:39.283Z,10.19
2022-08-08T04:55:57.030Z,10.13
2022-08-08T04:56:49.994Z,10.13
2022-08-08T04:57:55.478Z,11.06
2022-08-08T04:59:10.939Z,12.63
2022-08-08T05:00:08.187Z,5.37
2022-08-08T05:01:13.017Z,13.56
2022-08-08T05:02:31.302Z,12.88
2022-08-08T05:04:09.809Z,11.56
2022-08-08T05:04:31.860Z,11.44
2022-08-08T05:05:45.398Z,7.94
2022-08-08T05:06:45.090Z,10.81
2022-08-08T05:07:49.193Z,9.00
2022-08-08T05:08:55.989Z,10.38
2022-08-08T05:10:00.563Z,5.62
2022-08-08T05:11:10.290Z,7.50
2022-08-08T05:12:20.817Z,12.50
2022-08-08T05:13:21.806Z,13.13
2022-08-08T05:14:30.484Z,13.19
2022-08-08T05:16:47.823Z,12.44
2022-08-08T05:16:52.614Z,9.63
2022-08-08T05:17:54.443Z,9.31
2022-08-08T05:18:56.141Z,9.50
2022-08-08T05:20:13.501Z,9.75
2022-08-08T05:21:14.686Z,10.50
2022-08-08T05:22:20.277Z,10.31
2022-08-08T05:23:41.325Z,9.31
2022-08-08T05:24:33.393Z,8.75
2022-08-08T05:25:41.332Z,9.31
2022-08-08T05:26:43.307Z,8.94
2022-08-08T05:27:47.982Z,9.50
2022-08-08T05:28:57.547Z,5.87
2022-08-08T05:30:01.219Z,10.38
2022-08-08T05:32:02.216Z,8.56
2022-08-08T05:32:14.840Z,10.75
2022-08-08T05:33:21.720Z,10.00
2022-08-08T05:34:46.025Z,11.19
2022-08-08T05:35:54.219Z,9.00
2022-08-08T05:37:00.134Z,10.50
2022-08-08T05:38:31.357Z,8.25
2022-08-08T05:39:13.962Z,9.38
2022-08-08T05:40:18.724Z,11.19
2022-08-08T05:41:27.842Z,9.38
2022-08-08T05:42:50.292Z,8.44
2022-08-08T05:44:03.226Z,8.38
2022-08-08T05:45:24.750Z,10.63
2022-08-08T05:46:15.337Z,8.81
2022-08-08T05:47:23.456Z,10.00
2022-08-08T05:48:32.348Z,12.00
2022-08-08T05:49:40.609Z,12.25
2022-08-08T05:50:46.734Z,9.00
2022-08-08T05:54:25.954Z,12.37
2022-08-08T05:54:50.296Z,10.50
2022-08-08T05:56:10.358Z,11.25
2022-08-08T05:56:53.388Z,9.19
2022-08-08T05:58:05.481Z,10.69
2022-08-08T05:58:35.314Z,10.94
2022-08-08T05:59:12.471Z,9.38
2022-08-08T06:00:25.301Z,8.38
2022-08-08T06:01:55.922Z,10.13
2022-08-08T06:02:28.059Z,2.06
2022-08-08T06:03:36.005Z,8.13
2022-08-08T06:04:44.111Z,5.44
2022-08-08T06:06:06.042Z,8.50
2022-08-08T06:07:11.204Z,7.12
2022-08-08T06:08:33.277Z,5.81
2022-08-08T06:10:00.169Z,7.94
2022-08-08T06:10:34.857Z,12.19
2022-08-08T06:11:46.726Z,37.07
2022-08-08T06:12:55.273Z,47.56
2022-08-08T06:14:03.033Z,60.73
2022-08-08T06:15:16.026Z,62.00
2022-08-08T06:16:27.751Z,38.94
2022-08-08T06:17:51.546Z,12.31
2022-08-08T06:18:59.924Z,14.44
2022-08-08T06:19:44.195Z,9.06
2022-08-08T06:20:50.862Z,10.06
2022-08-08T06:22:00.229Z,10.94
2022-08-08T06:23:05.187Z,15.81
2022-08-08T06:24:13.842Z,10.25
2022-08-08T06:25:16.582Z,8.00
2022-08-08T06:26:42.859Z,9.63
2022-08-08T06:27:47.902Z,13.56
2022-08-08T06:28:57.387Z,10.56
2022-08-08T06:30:28.186Z,14.00
2022-08-08T06:31:20.649Z,8.94
2022-08-08T06:32:30.953Z,20.56
2022-08-08T06:34:27.683Z,57.20
2022-08-08T06:34:58.425Z,13.00
2022-08-08T06:36:10.166Z,20.94
2022-08-08T06:37:24.744Z,18.94
2022-08-08T06:38:45.628Z,22.67
2022-08-08T06:39:56.065Z,11.25
2022-08-08T06:41:13.128Z,10.75
2022-08-08T06:42:18.766Z,9.00
2022-08-08T06:43:28.393Z,17.56
2022-08-08T06:44:31.709Z,19.44
2022-08-08T06:45:38.488Z,13.62
2022-08-08T06:46:47.088Z,11.63
2022-08-08T06:49:11.163Z,16.12
2022-08-08T06:50:17.628Z,10.50
2022-08-08T06:51:31.159Z,11.06
2022-08-08T06:52:30.586Z,8.75
2022-08-08T06:53:39.524Z,8.63
2022-08-08T06:54:35.002Z,16.75
2022-08-08T06:54:44.273Z,6.25
2022-08-08T06:56:02.295Z,9.19
2022-08-08T06:56:55.842Z,14.81
2022-08-08T06:58:04.004Z,12.25
2022-08-08T06:59:12.575Z,12.44
2022-08-08T07:00:16.120Z,5.37
2022-08-08T07:02:17.683Z,6.69
2022-08-08T07:02:33.118Z,4.44
2022-08-08T07:04:40.419Z,2.69
2022-08-08T07:05:07.728Z,10.13
2022-08-08T07:06:17.953Z,3.12
2022-08-08T07:07:42.882Z,3.69
2022-08-08T07:08:50.729Z,8.94
2022-08-08T07:10:08.196Z,5.56
2022-08-08T07:11:21.880Z,11.44
2022-08-08T07:12:21.703Z,12.00
2022-08-08T07:14:19.885Z,7.62
2022-08-08T07:14:53.795Z,10.50
2022-08-08T07:16:04.851Z,11.50
2022-08-08T07:17:19.158Z,10.25
2022-08-08T07:18:35.879Z,13.62
2022-08-08T07:19:40.222Z,13.06
2022-08-08T07:20:51.385Z,14.50
2022-08-08T07:22:05.305Z,9.63
2022-08-08T07:23:29.741Z,8.75
2022-08-08T07:25:01.401Z,20.75
2022-08-08T07:26:06.961Z,11.44
2022-08-08T07:27:16.641Z,26.69
2022-08-08T07:28:20.721Z,25.19
2022-08-08T07:30:00.345Z,8.50
2022-08-08T07:30:34.032Z,7.81
2022-08-08T07:31:38.515Z,9.19
2022-08-08T07:32:44.215Z,19.67
2022-08-08T07:33:58.987Z,7.62
2022-08-08T07:35:00.738Z,15.06
2022-08-08T07:36:08.138Z,25.00
2022-08-08T07:37:14.880Z,23.19
2022-08-08T07:38:20.831Z,16.69
2022-08-08T07:39:29.405Z,17.44
2022-08-08T07:40:34.305Z,19.31
2022-08-08T07:42:03.685Z,20.50
2022-08-08T07:42:58.171Z,23.69
2022-08-08T07:44:09.793Z,23.44
2022-08-08T07:45:15.731Z,16.75
2022-08-08T07:46:29.129Z,16.75
2022-08-08T07:47:29.127Z,14.75
2022-08-08T07:48:31.449Z,5.56
2022-08-08T07:49:39.998Z,2.12
2022-08-08T07:50:44.577Z,4.12
2022-08-08T07:51:53.429Z,2.31
2022-08-08T07:53:01.201Z,4.75
2022-08-08T07:54:26.408Z,1.62
2022-08-08T07:55:36.568Z,4.69
2022-08-08T07:56:46.360Z,4.44
2022-08-08T07:58:25.665Z,6.19
2022-08-08T07:59:05.919Z,6.00
2022-08-08T08:00:16.095Z,4.94
2022-08-08T08:01:27.577Z,7.62
2022-08-08T08:02:38.826Z,6.75
2022-08-08T08:04:01.695Z,9.00
2022-08-08T08:05:14.506Z,9.19
2022-08-08T08:06:20.868Z,8.75
2022-08-08T08:07:37.736Z,8.88
2022-08-08T08:08:52.414Z,8.88
2022-08-08T08:09:47.641Z,8.88
2022-08-08T08:10:55.383Z,8.56
2022-08-08T08:12:02.069Z,10.00
2022-08-08T08:13:17.830Z,9.19
2022-08-08T08:14:43.426Z,7.50
2022-08-08T08:16:02.250Z,10.50
2022-08-08T08:17:09.467Z,8.75
2022-08-08T08:18:14.575Z,7.44
2022-08-08T08:19:21.237Z,9.00
2022-08-08T08:20:30.300Z,8.31
2022-08-08T08:21:52.826Z,8.94
2022-08-08T08:22:47.478Z,9.25
2022-08-08T08:23:51.784Z,9.00
2022-08-08T08:24:57.539Z,9.75
2022-08-08T08:26:03.632Z,9.06
2022-08-08T08:27:08.386Z,10.19
2022-08-08T08:28:21.250Z,10.25
2022-08-08T08:29:19.711Z,9.38
2022-08-08T08:30:24.991Z,10.81
2022-08-08T08:31:34.797Z,8.50
2022-08-08T08:32:49.226Z,11.19
2022-08-08T08:33:43.643Z,10.44
2022-08-08T08:34:49.375Z,10.13
2022-08-08T08:36:18.789Z,7.75
2022-08-08T08:37:03.534Z,9.94
2022-08-08T08:38:17.461Z,9.50
2022-08-08T08:39:17.363Z,12.31
2022-08-08T08:40:25.354Z,11.19
2022-08-08T08:41:31.128Z,10.44
2022-08-08T08:42:38.201Z,9.44
2022-08-08T08:43:45.142Z,10.19
2022-08-08T08:44:49.956Z,9.38
2022-08-08T08:45:57.465Z,8.44
2022-08-08T08:47:03.128Z,9.00
2022-08-08T08:48:10.076Z,9.00
2022-08-08T08:49:18.929Z,8.69
2022-08-08T08:50:33.337Z,8.44
2022-08-08T08:51:33.937Z,9.81
2022-08-08T08:52:57.455Z,9.69
2022-08-08T08:54:00.812Z,8.00
2022-08-08T08:55:02.263Z,11.69
2022-08-08T08:56:09.615Z,10.19
2022-08-08T08:57:17.566Z,8.81
2022-08-08T08:58:25.895Z,10.25
2022-08-08T08:59:58.780Z,8.88
2022-08-08T09:01:09.924Z,10.25
2022-08-08T09:01:52.684Z,12.69
2022-08-08T09:03:00.096Z,11.94
2022-08-08T09:04:31.368Z,13.13
2022-08-08T09:05:49.034Z,12.06
2022-08-08T09:06:33.607Z,9.63
2022-08-08T09:07:52.120Z,9.00
2022-08-08T09:08:51.879Z,11.19
2022-08-08T09:10:04.775Z,11.19
2022-08-08T09:11:08.342Z,9.38
2022-08-08T09:12:15.902Z,8.75
2022-08-08T09:13:25.294Z,7.19
2022-08-08T09:14:28.930Z,8.13
2022-08-08T09:15:41.060Z,9.94
2022-08-08T09:16:41.161Z,5.75
2022-08-08T09:17:55.351Z,8.81
2022-08-08T09:18:55.533Z,9.44
2022-08-08T09:21:57.185Z,9.69
2022-08-08T09:22:00.133Z,8.13
2022-08-08T09:22:27.000Z,10.19
2022-08-08T09:23:38.380Z,8.69
2022-08-08T09:24:40.177Z,6.06
2022-08-08T09:26:02.446Z,7.94
2022-08-08T09:27:55.493Z,10.88
2022-08-08T09:28:08.989Z,22.56
2022-08-08T09:29:24.852Z,9.31
2022-08-08T09:30:32.351Z,5.06
2022-08-08T09:32:06.424Z,16.87
2022-08-08T09:34:15.885Z,16.62
2022-08-08T09:34:32.442Z,11.81
2022-08-08T09:35:32.316Z,9.56
2022-08-08T09:36:36.534Z,14.13
2022-08-08T09:38:02.503Z,12.88
2022-08-08T09:39:15.415Z,12.69
2022-08-08T09:40:24.114Z,11.25
2022-08-08T09:41:54.777Z,9.88
2022-08-08T09:42:51.121Z,8.81
2022-08-08T09:44:06.197Z,10.25
2022-08-08T09:45:20.616Z,11.06
2022-08-08T09:46:33.227Z,12.00
2022-08-08T09:48:04.297Z,10.38
2022-08-08T09:48:43.630Z,11.25
2022-08-08T09:49:50.259Z,8.38
2022-08-08T09:50:56.804Z,10.75
2022-08-08T09:52:08.675Z,9.38
2022-08-08T09:53:31.678Z,10.31
2022-08-08T09:54:19.734Z,8.38
2022-08-08T09:55:51.288Z,9.44
2022-08-08T09:56:35.066Z,8.94
2022-08-08T09:57:45.943Z,8.50
2022-08-08T09:59:20.098Z,9.25
2022-08-08T10:00:49.486Z,9.19
2022-08-08T10:01:59.187Z,13.00
2022-08-08T10:02:40.046Z,15.50
2022-08-08T10:03:57.237Z,23.12
2022-08-08T10:04:55.865Z,26.25
2022-08-08T10:06:18.818Z,28.75
2022-08-08T10:07:23.227Z,25.06
2022-08-08T10:08:32.190Z,23.75
2022-08-08T10:09:58.726Z,22.75
2022-08-08T10:10:50.900Z,20.25
2022-08-08T10:12:27.004Z,34.31
2022-08-08T10:13:00.466Z,46.19
2022-08-08T10:14:06.444Z,25.94
2022-08-08T10:15:18.334Z,24.63
2022-08-08T10:16:20.628Z,24.75
2022-08-08T10:18:05.405Z,20.50
2022-08-08T10:18:37.001Z,28.00
2022-08-08T10:19:57.407Z,25.56
2022-08-08T10:20:58.008Z,23.75
2022-08-08T10:21:58.253Z,22.81
2022-08-08T10:23:04.242Z,25.06
2022-08-08T10:24:12.204Z,31.00
2022-08-08T10:25:21.460Z,21.94
2022-08-08T10:26:52.447Z,19.31
2022-08-08T10:27:42.532Z,20.44
2022-08-08T10:28:55.521Z,25.56
2022-08-08T10:30:01.455Z,45.56
2022-08-08T10:31:11.614Z,39.88
2022-08-08T10:32:18.249Z,22.50
2022-08-08T10:33:38.270Z,27.25
2022-08-08T10:34:41.286Z,14.00
2022-08-08T10:36:07.521Z,9.88
2022-08-08T10:36:55.015Z,10.19
2022-08-08T10:38:01.973Z,14.63
2022-08-08T10:39:14.010Z,10.50
2022-08-08T10:40:22.206Z,18.31
2022-08-08T10:41:35.908Z,18.56
2022-08-08T10:42:37.758Z,12.94
2022-08-08T10:43:48.090Z,13.19
2022-08-08T10:44:54.794Z,10.94
2022-08-08T10:46:00.478Z,10.31
2022-08-08T10:47:15.678Z,10.88
2022-08-08T10:48:56.907Z,10.19
2022-08-08T10:50:01.638Z,16.25
2022-08-08T10:50:39.273Z,19.44
2022-08-08T10:51:50.880Z,19.50
2022-08-08T10:52:53.922Z,20.44
2022-08-08T10:54:00.031Z,15.81
2022-08-08T10:55:39.029Z,21.81
2022-08-08T10:56:27.560Z,7.81
2022-08-08T10:57:41.357Z,9.56
2022-08-08T10:58:35.485Z,8.63
2022-08-08T10:59:41.209Z,9.00
2022-08-08T11:00:53.149Z,12.13
2022-08-08T11:01:54.820Z,9.63
2022-08-08T11:03:11.472Z,10.56
2022-08-08T11:04:17.525Z,10.63
2022-08-08T11:05:24.159Z,10.81
2022-08-08T11:06:34.285Z,10.25
2022-08-08T11:08:31.194Z,13.75
2022-08-08T11:08:53.134Z,26.00
2022-08-08T11:09:55.001Z,23.62
2022-08-08T11:11:08.156Z,21.37
2022-08-08T11:12:15.528Z,14.94
2022-08-08T11:13:28.552Z,24.75
2022-08-08T11:14:46.832Z,29.67
2022-08-08T11:15:52.345Z,34.13
2022-08-08T11:16:47.064Z,42.81
2022-08-08T11:17:58.769Z,29.75
2022-08-08T11:19:02.337Z,17.94
2022-08-08T11:20:12.526Z,22.87
2022-08-08T11:21:20.185Z,11.06
2022-08-08T11:22:27.248Z,9.81
2022-08-08T11:23:33.819Z,11.06
2022-08-08T11:24:40.303Z,6.62
2022-08-08T11:25:58.399Z,7.37
2022-08-08T11:26:56.311Z,8.63
2022-08-08T11:28:00.735Z,3.94
2022-08-08T11:29:06.658Z,8.88
2022-08-08T11:30:24.436Z,8.44
2022-08-08T11:31:22.409Z,9.19
2022-08-08T11:32:29.483Z,9.88
2022-08-08T11:33:53.082Z,10.25
2022-08-08T11:35:08.787Z,9.19
2022-08-08T11:35:53.197Z,20.94
2022-08-08T11:37:01.158Z,22.81
2022-08-08T11:38:39.664Z,18.31
2022-08-08T11:40:13.230Z,17.50
2022-08-08T11:40:34.957Z,13.31
2022-08-08T11:41:42.308Z,17.25
2022-08-08T11:42:49.547Z,17.75
2022-08-08T11:43:57.841Z,16.31
2022-08-08T11:45:03.444Z,16.75
2022-08-08T11:46:23.158Z,17.69
2022-08-08T11:47:17.597Z,21.12
2022-08-08T11:48:23.748Z,24.63
2022-08-08T11:49:36.902Z,20.56
2022-08-08T11:50:38.470Z,22.19
2022-08-08T11:51:50.345Z,18.75
2022-08-08T11:52:49.957Z,11.50
2022-08-08T11:53:59.071Z,10.50
2022-08-08T11:55:03.185Z,11.63
2022-08-08T11:56:21.797Z,9.50
2022-08-08T11:57:35.374Z,9.50
2022-08-08T11:58:37.817Z,9.94
2022-08-08T12:00:01.739Z,10.50
2022-08-08T12:01:12.227Z,16.37
2022-08-08T12:02:31.287Z,35.69
2022-08-08T12:03:30.643Z,25.94
2022-08-08T12:04:42.399Z,53.75
2022-08-08T12:05:52.426Z,42.06
2022-08-08T12:07:14.373Z,56.53
2022-08-08T12:08:14.483Z,31.53
2022-08-08T12:09:20.034Z,54.07
2022-08-08T12:10:27.419Z,46.63
2022-08-08T12:11:34.409Z,22.31
2022-08-08T12:12:48.010Z,16.19
2022-08-08T12:14:03.412Z,25.69
2022-08-08T12:15:01.967Z,19.12
2022-08-08T12:16:16.549Z,18.75
2022-08-08T12:17:21.881Z,21.44
2022-08-08T12:18:27.580Z,18.94
2022-08-08T12:19:51.383Z,20.69
2022-08-08T12:20:42.209Z,19.81
2022-08-08T12:21:59.335Z,16.06
2022-08-08T12:22:57.146Z,9.38
2022-08-08T12:24:11.365Z,11.31
2022-08-08T12:25:30.917Z,10.88
2022-08-08T12:26:43.275Z,8.25
2022-08-08T12:27:48.036Z,6.31
2022-08-08T12:28:58.693Z,5.25
2022-08-08T12:30:02.949Z,6.44
2022-08-08T12:31:11.624Z,10.13
2022-08-08T12:32:22.214Z,12.31
2022-08-08T12:33:37.100Z,6.56
2022-08-08T12:34:44.771Z,3.81
2022-08-08T12:35:52.484Z,15.88
2022-08-08T12:37:01.777Z,14.63
2022-08-08T12:38:09.462Z,4.25
2022-08-08T12:39:19.351Z,9.38
2022-08-08T12:40:26.924Z,4.50
2022-08-08T12:41:57.500Z,4.56
2022-08-08T12:42:49.485Z,6.00
2022-08-08T12:44:00.489Z,15.81
2022-08-08T12:45:53.551Z,15.63
2022-08-08T12:46:24.916Z,12.94
2022-08-08T12:47:58.007Z,18.56
2022-08-08T12:48:38.537Z,5.94
2022-08-08T12:50:58.983Z,25.75
2022-08-08T12:52:27.962Z,18.12
2022-08-08T12:53:37.829Z,24.19
2022-08-08T12:54:45.809Z,27.37
2022-08-08T12:56:18.335Z,16.69
2022-08-08T12:57:24.508Z,28.75
2022-08-08T12:58:31.915Z,33.63
2022-08-08T12:59:45.170Z,17.12
2022-08-08T13:00:45.759Z,16.19
2022-08-08T13:02:00.727Z,13.62
2022-08-08T13:03:07.669Z,13.56
2022-08-08T13:04:19.211Z,10.69
2022-08-08T13:05:26.900Z,5.56
2022-08-08T13:06:31.771Z,11.50
2022-08-08T13:08:04.300Z,10.00
2022-08-08T13:08:53.833Z,6.69
2022-08-08T13:10:05.112Z,11.25
2022-08-08T13:11:22.417Z,9.69
2022-08-08T13:12:30.682Z,7.94
2022-08-08T13:13:37.685Z,8.56
2022-08-08T13:14:53.478Z,9.25
2022-08-08T13:16:00.872Z,7.31
2022-08-08T13:17:54.418Z,9.38
2022-08-08T13:18:27.693Z,5.06
2022-08-08T13:20:13.863Z,1.31
2022-08-08T13:20:34.881Z,10.06
2022-08-08T13:21:58.080Z,2.00
2022-08-08T13:23:30.082Z,5.56
2022-08-08T13:24:04.016Z,9.81
2022-08-08T13:25:18.862Z,8.13
2022-08-08T13:26:32.198Z,6.06
2022-08-08T13:27:37.132Z,7.87
2022-08-08T13:28:48.972Z,10.00
2022-08-08T13:29:56.426Z,11.88
2022-08-08T13:31:04.088Z,10.75
2022-08-08T13:32:10.718Z,10.25
2022-08-08T13:33:18.591Z,19.19
2022-08-08T13:34:33.286Z,15.38
2022-08-08T13:35:38.958Z,13.44
2022-08-08T13:36:44.567Z,19.25
2022-08-08T13:38:04.577Z,8.25
2022-08-08T13:39:00.167Z,9.94
2022-08-08T13:40:03.763Z,8.19
2022-08-08T13:41:16.400Z,8.19
2022-08-08T13:42:21.723Z,10.69
2022-08-08T13:43:27.826Z,9.50
2022-08-08T13:44:32.266Z,6.62
2022-08-08T13:45:36.386Z,6.69
2022-08-08T13:46:57.966Z,4.12
2022-08-08T13:48:04.412Z,0.56
2022-08-08T13:50:36.353Z,4.00
2022-08-08T13:50:38.470Z,5.62
2022-08-08T13:51:48.504Z,9.69
2022-08-08T13:52:55.334Z,2.56
2022-08-08T13:54:01.825Z,0.69
2022-08-08T13:55:06.328Z,0.81
2022-08-08T13:56:13.684Z,1.56
2022-08-08T13:57:17.356Z,0.88
2022-08-08T13:58:21.428Z,0.56
2022-08-08T13:59:48.166Z,3.25
2022-08-08T14:00:46.746Z,1.12
2022-08-08T14:01:58.653Z,2.69
2022-08-08T14:03:05.083Z,3.06
2022-08-08T14:04:07.407Z,9.50
2022-08-08T14:05:20.471Z,15.25
2022-08-08T14:06:33.035Z,3.69
2022-08-08T14:07:34.765Z,3.44
2022-08-08T14:08:48.019Z,33.44
2022-08-08T14:10:05.380Z,34.56
2022-08-08T14:11:07.293Z,54.31
2022-08-08T14:12:14.524Z,22.69
2022-08-08T14:13:30.953Z,35.31
2022-08-08T14:14:37.943Z,57.44
2022-08-08T14:15:50.145Z,56.07
2022-08-08T14:16:51.296Z,28.56
2022-08-08T14:18:36.871Z,61.00
2022-08-08T14:19:10.811Z,51.40
2022-08-08T14:20:15.624Z,68.87
2022-08-08T14:21:20.882Z,69.67
2022-08-08T14:22:32.724Z,71.33
2022-08-08T14:24:03.891Z,85.13
2022-08-08T14:24:53.383Z,39.19
2022-08-08T14:26:02.106Z,18.25
2022-08-08T14:27:07.783Z,8.69
2022-08-08T14:28:13.449Z,12.88
2022-08-08T14:29:28.900Z,22.00
2022-08-08T14:30:34.666Z,11.12
2022-08-08T14:32:11.455Z,9.38
2022-08-08T14:32:52.769Z,9.69
2022-08-08T14:33:59.158Z,13.13
2022-08-08T14:35:07.802Z,9.44
2022-08-08T14:36:13.710Z,10.44
2022-08-08T14:37:20.359Z,17.62
2022-08-08T14:38:33.675Z,8.75
2022-08-08T14:39:48.349Z,18.06
2022-08-08T14:40:42.411Z,23.38
2022-08-08T14:41:54.537Z,16.25
2022-08-08T14:42:56.938Z,22.25
2022-08-08T14:44:11.066Z,22.87
2022-08-08T14:45:10.500Z,34.63
2022-08-08T14:46:17.456Z,41.63
2022-08-08T14:47:22.067Z,30.62
2022-08-08T14:48:38.996Z,52.00
2022-08-08T14:50:05.920Z,75.13
2022-08-08T14:50:43.931Z,20.19
2022-08-08T14:51:53.011Z,22.75
2022-08-08T14:52:57.417Z,13.69
2022-08-08T14:54:05.449Z,60.33
2022-08-08T14:55:12.580Z,36.00
2022-08-08T14:56:18.064Z,24.69
2022-08-08T14:57:24.235Z,23.75
2022-08-08T14:58:31.190Z,34.88
2022-08-08T14:59:50.859Z,37.38
2022-08-08T15:00:41.051Z,23.81
2022-08-08T15:01:51.379Z,21.19
2022-08-08T15:03:16.170Z,13.50
2022-08-08T15:04:08.910Z,10.50
2022-08-08T15:05:16.396Z,10.06
2022-08-08T15:06:22.262Z,13.44
2022-08-08T15:07:39.618Z,10.75
2022-08-08T15:08:33.506Z,9.94
2022-08-08T15:09:38.559Z,10.88
2022-08-08T15:10:42.838Z,11.12
2022-08-08T15:11:53.196Z,10.75
2022-08-08T15:12:55.638Z,10.69
2022-08-08T15:14:03.175Z,9.81
2022-08-08T15:15:09.898Z,13.13
2022-08-08T15:16:15.070Z,16.75
2022-08-08T15:17:26.995Z,17.37
2022-08-08T15:18:27.700Z,10.38
2022-08-08T15:19:32.261Z,14.50
2022-08-08T15:20:37.022Z,18.00
2022-08-08T15:21:43.234Z,13.81
2022-08-08T15:22:47.447Z,19.00
2022-08-08T15:23:52.093Z,12.81
2022-08-08T15:24:56.253Z,10.00
2022-08-08T15:26:01.749Z,10.69
2022-08-08T15:27:19.975Z,10.06
2022-08-08T15:28:34.478Z,12.31
2022-08-08T15:29:17.516Z,17.94
2022-08-08T15:30:22.535Z,17.81
2022-08-08T15:32:03.867Z,20.56
2022-08-08T15:32:35.047Z,15.63
2022-08-08T15:33:59.348Z,23.87
2022-08-08T15:34:48.701Z,25.31
2022-08-08T15:35:54.841Z,13.81